createdAt,value
2023-01-27T00:01:18.178Z,100540.94
2023-01-27T00:03:46.872Z,100537.99
2023-01-27T00:06:15.319Z,100540.27
2023-01-27T00:08:43.941Z,100535.96
2023-01-27T00:11:30.996Z,100533.19
2023-01-27T00:13:59.380Z,100531.66
2023-01-27T00:16:28.215Z,100526.98
2023-01-27T00:18:56.518Z,100526.10
2023-01-27T00:21:43.679Z,100530.77
2023-01-27T00:24:33.417Z,100525.73
2023-01-27T00:27:09.068Z,100532.06
2023-01-27T00:29:39.308Z,100535.14
2023-01-27T00:32:26.239Z,100534.40
2023-01-27T00:34:54.586Z,100535.39
2023-01-27T00:37:22.927Z,100538.81
2023-01-27T00:39:51.415Z,100545.32
2023-01-27T00:42:19.858Z,100544.98
2023-01-27T00:45:06.562Z,100551.16
2023-01-27T00:47:34.930Z,100551.00
2023-01-27T00:50:03.657Z,100554.77
2023-01-27T00:52:32.004Z,100553.73
2023-01-27T00:55:00.355Z,100553.34
2023-01-27T00:57:28.679Z,100554.77
2023-01-27T00:59:59.522Z,100555.77
2023-01-27T01:02:28.341Z,100559.75
2023-01-27T01:04:56.797Z,100558.88
2023-01-27T01:07:25.373Z,100560.38
2023-01-27T01:09:53.744Z,100559.15
2023-01-27T01:12:22.336Z,100561.59
2023-01-27T01:14:50.763Z,100560.75
2023-01-27T01:17:19.116Z,100559.54
2023-01-27T01:19:47.520Z,100560.37
2023-01-27T01:22:15.860Z,100560.33
2023-01-27T01:24:44.197Z,100557.50
2023-01-27T01:27:13.311Z,100555.11
2023-01-27T01:29:41.617Z,100549.39
2023-01-27T01:32:10.981Z,100551.75
2023-01-27T01:34:39.604Z,100551.38
2023-01-27T01:37:07.914Z,100547.70
2023-01-27T01:39:36.228Z,100547.49
2023-01-27T01:42:04.607Z,100541.61
2023-01-27T01:44:33.127Z,100541.11
2023-01-27T01:47:01.468Z,100540.27
2023-01-27T01:49:39.231Z,100540.90
2023-01-27T01:52:17.924Z,100537.57
2023-01-27T01:54:53.329Z,100537.83
2023-01-27T01:57:28.738Z,100533.31
2023-01-27T02:00:03.860Z,100534.52
2023-01-27T02:02:33.369Z,100537.62
2023-01-27T02:05:07.460Z,100536.78
2023-01-27T02:07:53.375Z,100535.90
2023-01-27T02:10:21.910Z,100542.96
2023-01-27T02:12:50.397Z,100539.89
2023-01-27T02:15:19.279Z,100545.54
2023-01-27T02:17:49.131Z,100546.42
2023-01-27T02:20:29.728Z,100546.80
2023-01-27T02:23:11.241Z,100544.11
2023-01-27T02:25:47.424Z,100542.77
2023-01-27T02:28:15.933Z,100546.17
2023-01-27T02:30:44.443Z,100548.31
2023-01-27T02:33:15.052Z,100549.88
2023-01-27T02:35:59.241Z,100550.75
2023-01-27T02:38:34.137Z,100546.90
2023-01-27T02:41:26.122Z,100551.85
2023-01-27T02:43:54.798Z,100552.55
2023-01-27T02:46:23.550Z,100552.68
2023-01-27T02:48:52.177Z,100548.39
2023-01-27T02:51:20.528Z,100545.14
2023-01-27T02:53:48.925Z,100547.06
2023-01-27T02:56:17.387Z,100543.30
2023-01-27T02:58:45.864Z,100543.45
2023-01-27T03:01:14.222Z,100544.81
2023-01-27T03:03:47.485Z,100541.55
2023-01-27T03:06:16.317Z,100540.75
2023-01-27T03:08:45.037Z,100542.55
2023-01-27T03:11:13.392Z,100542.15
2023-01-27T03:13:41.744Z,100542.66
2023-01-27T03:16:30.213Z,100543.51
2023-01-27T03:18:58.565Z,100543.15
2023-01-27T03:21:26.957Z,100543.16
2023-01-27T03:23:55.330Z,100546.25
2023-01-27T03:26:23.594Z,100546.01
2023-01-27T03:29:12.059Z,100546.94
2023-01-27T03:31:40.446Z,100544.15
2023-01-27T03:34:08.907Z,100543.15
2023-01-27T03:36:55.787Z,100541.27
2023-01-27T03:39:42.837Z,100543.41
2023-01-27T03:42:29.645Z,100544.70
2023-01-27T03:45:16.489Z,100544.90
2023-01-27T03:47:44.870Z,100546.98
2023-01-27T03:50:19.490Z,100548.61
2023-01-27T03:53:03.285Z,100551.67
2023-01-27T03:55:33.418Z,100545.05
2023-01-27T03:58:18.320Z,100545.36
2023-01-27T04:00:50.807Z,100547.73
2023-01-27T04:03:39.747Z,100549.63
2023-01-27T04:06:39.977Z,100550.92
2023-01-27T04:09:10.395Z,100547.35
2023-01-27T04:11:57.726Z,100549.02
2023-01-27T04:14:43.024Z,100547.56
2023-01-27T04:17:17.885Z,100544.30
2023-01-27T04:19:47.537Z,100544.48
2023-01-27T04:22:16.843Z,100546.67
2023-01-27T04:24:45.178Z,100551.14
2023-01-27T04:27:20.263Z,100552.33
2023-01-27T04:29:48.887Z,100549.88
2023-01-27T04:32:17.171Z,100548.62
2023-01-27T04:34:45.572Z,100550.87
2023-01-27T04:37:13.898Z,100552.02
2023-01-27T04:39:42.234Z,100549.23
2023-01-27T04:42:10.565Z,100551.96
2023-01-27T04:44:38.811Z,100552.82
2023-01-27T04:47:07.151Z,100555.70
2023-01-27T04:49:35.434Z,100552.05
2023-01-27T04:52:03.945Z,100548.75
2023-01-27T04:54:32.254Z,100547.65
2023-01-27T04:57:03.712Z,100550.49
2023-01-27T04:59:32.138Z,100551.52
2023-01-27T05:02:00.562Z,100553.88
2023-01-27T05:04:28.939Z,100557.98
2023-01-27T05:06:57.249Z,100554.31
2023-01-27T05:09:25.703Z,100553.75
2023-01-27T05:11:54.081Z,100562.16
2023-01-27T05:14:23.662Z,100565.23
2023-01-27T05:16:52.273Z,100567.42
2023-01-27T05:19:20.643Z,100571.85
2023-01-27T05:21:48.998Z,100572.27
2023-01-27T05:24:17.328Z,100576.88
2023-01-27T05:26:45.737Z,100576.80
2023-01-27T05:29:14.084Z,100581.41
2023-01-27T05:31:42.513Z,100586.56
2023-01-27T05:34:10.938Z,100592.55
2023-01-27T05:36:39.266Z,100598.19
2023-01-27T05:39:10.864Z,100594.88
2023-01-27T05:41:39.242Z,100597.59
2023-01-27T05:44:11.882Z,100595.33
2023-01-27T05:46:41.783Z,100592.20
2023-01-27T05:49:10.178Z,100594.41
2023-01-27T05:51:40.103Z,100597.81
2023-01-27T05:54:09.594Z,100603.12
2023-01-27T05:56:37.908Z,100605.48
2023-01-27T05:59:07.428Z,100603.00
2023-01-27T06:01:37.353Z,100605.02
2023-01-27T06:04:06.266Z,100603.43
2023-01-27T06:06:35.258Z,100607.39
2023-01-27T06:09:03.837Z,100610.80
2023-01-27T06:11:32.176Z,100611.79
2023-01-27T06:14:00.507Z,100612.50
2023-01-27T06:16:28.871Z,100610.43
2023-01-27T06:18:58.699Z,100614.34
2023-01-27T06:21:27.111Z,100621.73
2023-01-27T06:23:56.106Z,100614.81
2023-01-27T06:26:24.787Z,100620.69
2023-01-27T06:28:53.089Z,100623.27
2023-01-27T06:31:22.693Z,100623.12
2023-01-27T06:33:51.637Z,100622.96
2023-01-27T06:36:22.062Z,100621.91
2023-01-27T06:38:51.660Z,100624.64
2023-01-27T06:41:20.080Z,100627.73
2023-01-27T06:43:48.461Z,100629.33
2023-01-27T06:46:16.934Z,100634.50
2023-01-27T06:48:45.390Z,100632.73
2023-01-27T06:51:14.394Z,100635.46
2023-01-27T06:53:42.832Z,100630.52
2023-01-27T06:56:11.252Z,100628.14
2023-01-27T06:58:39.542Z,100625.91
2023-01-27T07:01:07.948Z,100624.35
2023-01-27T07:03:37.488Z,100624.02
2023-01-27T07:06:06.350Z,100624.09
2023-01-27T07:08:34.681Z,100627.39
2023-01-27T07:11:06.020Z,100627.44
2023-01-27T07:13:34.392Z,100633.13
2023-01-27T07:16:02.785Z,100634.16
2023-01-27T07:18:31.325Z,100637.20
2023-01-27T07:20:59.664Z,100635.25
2023-01-27T07:23:27.951Z,100638.91
2023-01-27T07:25:56.412Z,100643.74
2023-01-27T07:28:24.716Z,100645.23
2023-01-27T07:30:53.239Z,100648.84
2023-01-27T07:33:21.563Z,100651.69
2023-01-27T07:35:50.027Z,100654.38
2023-01-27T07:38:18.810Z,100649.88
2023-01-27T07:40:47.557Z,100655.84
2023-01-27T07:43:16.099Z,100655.05
2023-01-27T07:45:44.664Z,100664.14
2023-01-27T07:48:13.203Z,100663.55
2023-01-27T07:50:44.412Z,100665.58
2023-01-27T07:53:12.785Z,100665.04
2023-01-27T07:55:41.627Z,100665.86
2023-01-27T07:58:10.123Z,100666.84
2023-01-27T08:00:38.585Z,100665.80
2023-01-27T08:03:07.051Z,100669.48
2023-01-27T08:05:35.456Z,100666.14
2023-01-27T08:08:04.357Z,100665.66
2023-01-27T08:10:33.397Z,100659.23
2023-01-27T08:13:01.922Z,100663.17
2023-01-27T08:15:30.407Z,100665.23
2023-01-27T08:17:59.341Z,100667.11
2023-01-27T08:20:28.320Z,100664.52
2023-01-27T08:22:56.809Z,100663.99
2023-01-27T08:25:25.461Z,100670.06
2023-01-27T08:27:56.014Z,100667.64
2023-01-27T08:30:25.261Z,100673.27
2023-01-27T08:32:55.165Z,100674.42
2023-01-27T08:35:23.578Z,100677.48
2023-01-27T08:37:51.971Z,100682.98
2023-01-27T08:40:20.528Z,100684.56
2023-01-27T08:42:50.980Z,100681.64
2023-01-27T08:45:19.461Z,100680.81
2023-01-27T08:47:48.368Z,100686.86
2023-01-27T08:50:17.181Z,100685.98
2023-01-27T08:52:45.577Z,100687.09
2023-01-27T08:55:15.461Z,100687.83
2023-01-27T08:57:43.859Z,100687.79
2023-01-27T09:00:13.460Z,100687.42
2023-01-27T09:02:42.261Z,100685.77
2023-01-27T09:05:10.903Z,100687.62
2023-01-27T09:07:39.254Z,100691.26
2023-01-27T09:10:14.656Z,100691.89
2023-01-27T09:12:48.075Z,100696.52
2023-01-27T09:15:16.541Z,100699.34
2023-01-27T09:17:45.147Z,100702.81
2023-01-27T09:20:14.076Z,100700.20
2023-01-27T09:22:42.941Z,100704.80
2023-01-27T09:25:17.677Z,100702.17
2023-01-27T09:27:46.026Z,100703.48
2023-01-27T09:30:16.354Z,100706.88
2023-01-27T09:32:44.927Z,100707.60
2023-01-27T09:35:13.686Z,100711.40
2023-01-27T09:37:57.959Z,100713.02
2023-01-27T09:40:39.611Z,100717.08
2023-01-27T09:43:26.493Z,100716.05
2023-01-27T09:46:19.692Z,100717.89
2023-01-27T09:49:21.213Z,100719.42
2023-01-27T09:52:23.834Z,100715.25
2023-01-27T09:55:15.980Z,100724.48
2023-01-27T09:58:28.936Z,100724.39
2023-01-27T10:01:22.646Z,100727.19
2023-01-27T10:04:09.263Z,100725.77
2023-01-27T10:07:18.669Z,100722.08
2023-01-27T10:10:21.670Z,100724.05
2023-01-27T10:13:13.869Z,100720.32
2023-01-27T10:16:22.447Z,100719.80
2023-01-27T10:20:04.699Z,100719.14
2023-01-27T10:23:09.293Z,100724.59
2023-01-27T10:25:40.522Z,100722.23
2023-01-27T10:28:17.072Z,100722.70
2023-01-27T10:31:00.149Z,100719.21
2023-01-27T10:33:43.857Z,100722.46
2023-01-27T10:36:24.802Z,100723.02
2023-01-27T10:39:24.565Z,100725.83
2023-01-27T10:42:03.688Z,100727.59
2023-01-27T10:45:28.716Z,100726.60
2023-01-27T10:48:31.005Z,100724.63
2023-01-27T10:51:11.608Z,100731.18
2023-01-27T10:54:14.087Z,100733.23
2023-01-27T10:56:53.197Z,100731.94
2023-01-27T11:00:37.986Z,100736.80
2023-01-27T11:03:23.873Z,100736.67
2023-01-27T11:05:57.692Z,100738.29
2023-01-27T11:08:32.623Z,100734.10
2023-01-27T11:11:24.594Z,100732.84
2023-01-27T11:14:22.531Z,100732.45
2023-01-27T11:17:21.598Z,100731.89
2023-01-27T11:20:06.138Z,100724.57
2023-01-27T11:23:16.415Z,100724.98
2023-01-27T11:26:23.677Z,100721.20
2023-01-27T11:29:31.915Z,100722.13
2023-01-27T11:32:41.212Z,100721.30
2023-01-27T11:35:15.775Z,100716.39
2023-01-27T11:37:48.172Z,100719.48
2023-01-27T11:40:51.307Z,100718.02
2023-01-27T11:43:25.594Z,100716.77
2023-01-27T11:46:02.861Z,100713.66
2023-01-27T11:48:43.034Z,100710.34
2023-01-27T11:51:23.008Z,100713.13
2023-01-27T11:54:12.683Z,100710.90
2023-01-27T11:56:44.210Z,100709.55
2023-01-27T11:59:38.491Z,100705.83
2023-01-27T12:02:47.587Z,100715.69
2023-01-27T12:05:25.925Z,100707.11
2023-01-27T12:08:05.507Z,100708.05
2023-01-27T12:10:43.725Z,100705.02
2023-01-27T12:13:25.663Z,100704.79
2023-01-27T12:16:00.939Z,100701.13
2023-01-27T12:18:33.983Z,100697.80
2023-01-27T12:21:08.247Z,100700.02
2023-01-27T12:23:46.711Z,100695.24
2023-01-27T12:26:15.506Z,100695.40
2023-01-27T12:28:53.175Z,100698.09
2023-01-27T12:31:31.382Z,100697.42
2023-01-27T12:34:27.582Z,100694.25
2023-01-27T12:36:58.222Z,100691.15
2023-01-27T12:39:45.002Z,100694.60
2023-01-27T12:42:44.401Z,100695.63
2023-01-27T12:45:22.672Z,100697.73
2023-01-27T12:48:09.014Z,100694.37
2023-01-27T12:50:43.398Z,100695.85
2023-01-27T12:53:17.581Z,100699.17
2023-01-27T12:56:01.195Z,100693.75
2023-01-27T12:58:47.320Z,100702.05
2023-01-27T13:01:38.447Z,100703.64
2023-01-27T13:04:21.830Z,100711.59
2023-01-27T13:07:02.142Z,100713.45
2023-01-27T13:09:50.101Z,100711.40
2023-01-27T13:12:30.961Z,100718.52
2023-01-27T13:15:31.596Z,100717.66
2023-01-27T13:18:13.108Z,100722.33
2023-01-27T13:20:50.989Z,100723.51
2023-01-27T13:23:24.723Z,100726.64
2023-01-27T13:26:11.429Z,100728.22
2023-01-27T13:28:57.177Z,100733.73
2023-01-27T13:31:33.778Z,100736.71
2023-01-27T13:34:21.064Z,100738.48
2023-01-27T13:37:06.223Z,100743.60
2023-01-27T13:39:55.347Z,100744.13
2023-01-27T13:42:46.575Z,100744.20
2023-01-27T13:45:33.147Z,100744.58
2023-01-27T13:48:22.571Z,100753.02
2023-01-27T13:51:20.376Z,100754.98
2023-01-27T13:54:01.974Z,100759.52
2023-01-27T13:57:23.537Z,100760.14
2023-01-27T14:00:21.296Z,100764.95
2023-01-27T14:03:18.139Z,100766.02
2023-01-27T14:06:04.639Z,100771.71
2023-01-27T14:09:34.424Z,100773.82
2023-01-27T14:12:52.020Z,100776.17
2023-01-27T14:15:43.302Z,100779.90
2023-01-27T14:18:20.190Z,100776.79
2023-01-27T14:21:43.764Z,100774.04
2023-01-27T14:24:43.828Z,100773.84
2023-01-27T14:27:42.909Z,100771.58
2023-01-27T14:30:18.741Z,100769.51
2023-01-27T14:33:05.797Z,100768.13
2023-01-27T14:35:50.941Z,100764.35
2023-01-27T14:38:48.301Z,100769.57
2023-01-27T14:42:01.319Z,100766.80
2023-01-27T14:45:06.188Z,100766.84
2023-01-27T14:48:05.214Z,100766.30
2023-01-27T14:51:04.338Z,100763.21
2023-01-27T14:54:15.207Z,100765.02
2023-01-27T14:57:33.319Z,100766.32
2023-01-27T15:00:39.656Z,100766.37
2023-01-27T15:03:54.939Z,100761.73
2023-01-27T15:06:53.559Z,100762.86
2023-01-27T15:09:33.261Z,100765.52
2023-01-27T15:12:11.718Z,100765.71
2023-01-27T15:14:49.281Z,100766.30
2023-01-27T15:17:32.608Z,100765.10
2023-01-27T15:20:25.892Z,100773.42
2023-01-27T15:23:27.256Z,100773.08
2023-01-27T15:26:02.169Z,100774.33
2023-01-27T15:28:39.599Z,100774.38
2023-01-27T15:31:13.964Z,100772.39
2023-01-27T15:33:50.192Z,100779.75
2023-01-27T15:36:33.504Z,100782.80
2023-01-27T15:39:11.063Z,100786.77
2023-01-27T15:42:02.467Z,100788.03
2023-01-27T15:44:40.747Z,100786.70
2023-01-27T15:47:22.896Z,100792.03
2023-01-27T15:50:04.897Z,100789.60
2023-01-27T15:52:42.687Z,100793.00
2023-01-27T15:55:30.164Z,100789.96
2023-01-27T15:58:28.363Z,100794.37
2023-01-27T16:01:00.468Z,100796.61
2023-01-27T16:03:43.892Z,100799.91
2023-01-27T16:06:24.457Z,100801.30
2023-01-27T16:08:59.692Z,100800.30
2023-01-27T16:11:31.001Z,100803.48
2023-01-27T16:14:11.322Z,100806.09
2023-01-27T16:16:41.413Z,100808.58
2023-01-27T16:19:10.902Z,100808.09
2023-01-27T16:22:00.711Z,100808.56
2023-01-27T16:25:05.720Z,100807.34
2023-01-27T16:27:48.300Z,100808.17
2023-01-27T16:30:28.240Z,100808.96
2023-01-27T16:33:37.563Z,100807.13
2023-01-27T16:36:20.703Z,100804.03
2023-01-27T16:38:49.829Z,100805.27
2023-01-27T16:41:32.782Z,100807.02
2023-01-27T16:44:41.715Z,100811.48
2023-01-27T16:47:47.220Z,100816.52
2023-01-27T16:50:34.168Z,100816.60
2023-01-27T16:53:05.836Z,100821.29
2023-01-27T16:55:34.440Z,100828.02
2023-01-27T16:58:03.844Z,100826.64
2023-01-27T17:00:36.075Z,100834.20
2023-01-27T17:03:19.886Z,100832.11
2023-01-27T17:05:53.290Z,100833.64
2023-01-27T17:08:27.739Z,100838.77
2023-01-27T17:11:30.220Z,100837.19
2023-01-27T17:14:21.300Z,100831.20
2023-01-27T17:17:06.251Z,100837.44
2023-01-27T17:19:36.948Z,100835.88
2023-01-27T17:22:11.767Z,100837.73
2023-01-27T17:24:50.790Z,100838.71
2023-01-27T17:27:41.795Z,100838.54
2023-01-27T17:30:10.098Z,100841.42
2023-01-27T17:32:42.065Z,100842.05
2023-01-27T17:35:25.565Z,100841.19
2023-01-27T17:38:16.367Z,100840.48
2023-01-27T17:40:48.347Z,100842.92
2023-01-27T17:43:36.005Z,100846.52
2023-01-27T17:46:23.691Z,100846.47
2023-01-27T17:49:01.730Z,100851.98
2023-01-27T17:51:46.526Z,100854.55
2023-01-27T17:54:21.658Z,100855.75
2023-01-27T17:56:58.461Z,100867.83
2023-01-27T17:59:28.585Z,100860.79
2023-01-27T18:02:04.646Z,100864.75
2023-01-27T18:04:40.827Z,100864.07
2023-01-27T18:07:11.686Z,100862.36
2023-01-27T18:09:51.160Z,100863.05
2023-01-27T18:12:35.511Z,100862.92
2023-01-27T18:15:32.853Z,100859.16
2023-01-27T18:18:02.849Z,100865.56
2023-01-27T18:20:36.179Z,100858.98
2023-01-27T18:23:14.561Z,100867.12
2023-01-27T18:25:51.564Z,100866.84
2023-01-27T18:28:20.298Z,100863.08
2023-01-27T18:30:51.091Z,100865.21
2023-01-27T18:33:20.125Z,100864.42
2023-01-27T18:35:58.113Z,100870.55
2023-01-27T18:38:32.099Z,100870.86
2023-01-27T18:41:12.059Z,100874.33
2023-01-27T18:43:40.421Z,100875.67
2023-01-27T18:46:11.171Z,100876.48
2023-01-27T18:48:40.227Z,100879.61
2023-01-27T18:51:13.940Z,100878.27
2023-01-27T18:53:43.143Z,100874.86
2023-01-27T18:56:11.469Z,100878.48
2023-01-27T18:58:39.937Z,100870.34
2023-01-27T19:01:22.624Z,100872.06
2023-01-27T19:03:52.307Z,100872.21
2023-01-27T19:06:20.689Z,100874.05
2023-01-27T19:08:51.914Z,100878.89
2023-01-27T19:11:20.235Z,100880.12
2023-01-27T19:13:48.725Z,100876.27
2023-01-27T19:16:17.768Z,100879.83
2023-01-27T19:18:46.184Z,100883.09
2023-01-27T19:21:16.589Z,100885.16
2023-01-27T19:23:45.937Z,100894.48
2023-01-27T19:26:18.432Z,100895.34
2023-01-27T19:28:51.217Z,100888.91
2023-01-27T19:31:20.012Z,100891.10
2023-01-27T19:33:48.382Z,100890.88
2023-01-27T19:36:40.786Z,100892.06
2023-01-27T19:39:17.620Z,100897.17
2023-01-27T19:41:46.874Z,100895.74
2023-01-27T19:44:16.031Z,100897.96
2023-01-27T19:46:44.432Z,100901.90
2023-01-27T19:49:18.493Z,100904.52
2023-01-27T19:51:46.911Z,100908.80
2023-01-27T19:54:16.736Z,100912.03
2023-01-27T19:56:45.489Z,100911.47
2023-01-27T19:59:13.871Z,100913.64
2023-01-27T20:01:42.204Z,100914.44
2023-01-27T20:04:10.680Z,100919.03
2023-01-27T20:06:39.185Z,100918.62
2023-01-27T20:09:07.526Z,100922.67
2023-01-27T20:11:41.958Z,100920.52
2023-01-27T20:14:19.406Z,100922.89
2023-01-27T20:16:47.792Z,100924.59
2023-01-27T20:19:16.630Z,100931.44
2023-01-27T20:21:47.939Z,100932.63
2023-01-27T20:24:18.779Z,100940.71
2023-01-27T20:26:47.208Z,100945.67
2023-01-27T20:29:15.606Z,100942.05
2023-01-27T20:31:44.027Z,100942.02
2023-01-27T20:34:12.394Z,100941.35
2023-01-27T20:36:40.707Z,100941.17
2023-01-27T20:39:09.026Z,100947.02
2023-01-27T20:41:37.374Z,100948.95
2023-01-27T20:44:05.712Z,100948.44
2023-01-27T20:46:34.792Z,100953.92
2023-01-27T20:49:03.279Z,100951.30
2023-01-27T20:51:31.569Z,100949.91
2023-01-27T20:54:00.737Z,100954.39
2023-01-27T20:56:29.081Z,100952.47
2023-01-27T20:59:04.788Z,100950.23
2023-01-27T21:01:33.438Z,100951.00
2023-01-27T21:04:01.792Z,100951.61
2023-01-27T21:06:30.107Z,100945.63
2023-01-27T21:08:58.393Z,100945.66
2023-01-27T21:11:26.858Z,100941.37
2023-01-27T21:13:55.194Z,100942.20
2023-01-27T21:16:23.559Z,100941.84
2023-01-27T21:18:51.854Z,100942.40
2023-01-27T21:21:29.677Z,100937.98
2023-01-27T21:24:00.450Z,100937.49
2023-01-27T21:26:28.876Z,100940.02
2023-01-27T21:29:00.412Z,100941.45
2023-01-27T21:31:30.345Z,100941.06
2023-01-27T21:34:00.281Z,100943.95
2023-01-27T21:36:29.003Z,100944.63
2023-01-27T21:38:57.822Z,100946.55
2023-01-27T21:41:44.669Z,100944.48
2023-01-27T21:44:48.034Z,100942.08
2023-01-27T21:47:19.230Z,100941.95
2023-01-27T21:50:04.373Z,100937.17
2023-01-27T21:52:47.846Z,100937.23
2023-01-27T21:55:22.195Z,100937.18
2023-01-27T21:57:52.526Z,100934.70
2023-01-27T22:00:26.774Z,100935.59
2023-01-27T22:03:00.626Z,100934.42
2023-01-27T22:05:31.574Z,100934.12
2023-01-27T22:08:02.007Z,100931.89
2023-01-27T22:10:30.807Z,100928.98
2023-01-27T22:13:03.674Z,100926.22
2023-01-27T22:15:32.837Z,100927.56
2023-01-27T22:18:01.284Z,100928.76
2023-01-27T22:20:29.592Z,100927.89
2023-01-27T22:22:57.957Z,100930.11
2023-01-27T22:25:27.433Z,100929.40
2023-01-27T22:27:56.585Z,100929.27
2023-01-27T22:30:25.063Z,100922.05
2023-01-27T22:32:53.367Z,100925.15
2023-01-27T22:35:21.824Z,100919.64
2023-01-27T22:37:51.297Z,100921.52
2023-01-27T22:40:19.893Z,100920.83
2023-01-27T22:42:49.905Z,100918.77
2023-01-27T22:45:18.577Z,100922.20
2023-01-27T22:47:47.091Z,100919.64
2023-01-27T22:50:16.467Z,100916.17
2023-01-27T22:52:45.659Z,100916.71
2023-01-27T22:55:14.861Z,100917.24
2023-01-27T22:57:45.107Z,100915.72
2023-01-27T23:00:13.907Z,100913.67
2023-01-27T23:02:42.563Z,100912.72
2023-01-27T23:05:11.141Z,100909.38
2023-01-27T23:07:39.530Z,100906.83
2023-01-27T23:10:08.964Z,100907.18
2023-01-27T23:12:37.391Z,100907.13
2023-01-27T23:15:06.793Z,100908.98
2023-01-27T23:17:35.199Z,100910.17
2023-01-27T23:20:04.324Z,100915.43
2023-01-27T23:22:32.709Z,100916.48
2023-01-27T23:25:01.071Z,100911.09
2023-01-27T23:27:29.457Z,100909.49
2023-01-27T23:29:57.716Z,100908.08
2023-01-27T23:32:26.080Z,100906.30
2023-01-27T23:34:54.469Z,100906.13
2023-01-27T23:37:22.851Z,100901.99
2023-01-27T23:39:51.143Z,100900.09
2023-01-27T23:42:19.784Z,100900.95
2023-01-27T23:44:48.109Z,100896.98
2023-01-27T23:47:16.890Z,100894.62
2023-01-27T23:49:45.212Z,100892.73
2023-01-27T23:52:13.813Z,100889.83
2023-01-27T23:54:42.156Z,100888.59
2023-01-27T23:57:10.477Z,100889.89
2023-01-27T23:59:38.761Z,100887.54
